createdAt,value
2019-04-06T00:02:23.631Z,69.43
2019-04-06T00:04:54.293Z,67.57
2019-04-06T00:07:24.904Z,65.97
2019-04-06T00:09:55.704Z,68.23
2019-04-06T00:12:26.933Z,66.80
2019-04-06T00:14:58.182Z,67.10
2019-04-06T00:17:29.008Z,69.53
2019-04-06T00:20:00.090Z,72.23
2019-04-06T00:22:33.288Z,71.03
2019-04-06T00:25:03.904Z,65.20
2019-04-06T00:27:37.814Z,69.97
2019-04-06T00:30:09.231Z,68.77
2019-04-06T00:32:47.542Z,69.63
2019-04-06T00:35:18.070Z,68.20
2019-04-06T00:37:49.218Z,71.33
2019-04-06T00:40:19.886Z,69.23
2019-04-06T00:42:50.788Z,69.40
2019-04-06T00:45:21.898Z,70.63
2019-04-06T00:47:52.903Z,70.70
2019-04-06T00:50:24.961Z,69.70
2019-04-06T00:52:56.543Z,69.77
2019-04-06T00:55:28.673Z,70.17
2019-04-06T00:57:59.280Z,74.37
2019-04-06T01:00:30.513Z,73.53
2019-04-06T01:03:01.432Z,75.17
2019-04-06T01:05:31.980Z,69.47
2019-04-06T01:08:02.899Z,74.93
2019-04-06T01:10:34.857Z,79.07
2019-04-06T01:13:14.464Z,75.23
2019-04-06T01:15:45.177Z,76.47
2019-04-06T01:18:15.796Z,77.43
2019-04-06T01:20:47.638Z,76.87
2019-04-06T01:23:18.929Z,70.83
2019-04-06T01:25:50.215Z,74.30
2019-04-06T01:28:21.129Z,75.37
2019-04-06T01:30:52.169Z,78.63
2019-04-06T01:33:22.814Z,73.03
2019-04-06T01:35:53.527Z,74.13
2019-04-06T01:38:24.357Z,70.60
2019-04-06T01:40:55.387Z,75.60
2019-04-06T01:43:26.733Z,76.43
2019-04-06T01:45:57.659Z,72.30
2019-04-06T01:48:28.648Z,72.00
2019-04-06T01:51:02.258Z,75.07
2019-04-06T01:53:33.504Z,74.67
2019-04-06T01:56:04.255Z,70.10
2019-04-06T01:58:35.188Z,72.30
2019-04-06T02:01:30.716Z,68.13
2019-04-06T02:04:01.781Z,73.73
2019-04-06T02:06:32.613Z,69.83
2019-04-06T02:09:04.879Z,70.87
2019-04-06T02:11:36.161Z,74.77
2019-04-06T02:14:07.371Z,72.10
2019-04-06T02:16:38.164Z,73.83
2019-04-06T02:19:09.393Z,76.87
2019-04-06T02:21:40.387Z,76.63
2019-04-06T02:24:11.329Z,78.67
2019-04-06T02:26:44.986Z,75.40
2019-04-06T02:29:15.903Z,69.93
2019-04-06T02:32:04.664Z,75.60
2019-04-06T02:34:44.200Z,76.00
2019-04-06T02:37:32.141Z,72.13
2019-04-06T02:40:22.500Z,75.53
2019-04-06T02:42:58.209Z,75.23
2019-04-06T02:45:28.760Z,73.77
2019-04-06T02:47:59.876Z,73.63
2019-04-06T02:50:31.276Z,74.33
2019-04-06T02:53:02.326Z,73.43
2019-04-06T02:55:33.601Z,74.17
2019-04-06T02:58:04.211Z,77.43
2019-04-06T03:00:35.305Z,78.43
2019-04-06T03:03:06.591Z,76.00
2019-04-06T03:05:37.780Z,75.17
2019-04-06T03:08:08.725Z,75.83
2019-04-06T03:10:39.279Z,71.80
2019-04-06T03:13:10.472Z,77.90
2019-04-06T03:15:41.513Z,75.43
2019-04-06T03:18:12.303Z,75.27
2019-04-06T03:20:42.889Z,76.77
2019-04-06T03:23:13.550Z,75.17
2019-04-06T03:25:44.187Z,77.47
2019-04-06T03:28:14.904Z,72.53
2019-04-06T03:30:45.819Z,75.00
2019-04-06T03:33:16.828Z,70.93
2019-04-06T03:35:50.003Z,71.20
2019-04-06T03:38:21.895Z,72.10
2019-04-06T03:40:52.741Z,69.70
2019-04-06T03:43:23.473Z,70.90
2019-04-06T03:45:55.534Z,72.23
2019-04-06T03:48:26.140Z,72.07
2019-04-06T03:50:57.056Z,68.63
2019-04-06T03:53:27.553Z,72.63
2019-04-06T03:55:58.684Z,75.37
2019-04-06T03:58:30.201Z,76.30
2019-04-06T04:01:02.236Z,74.13
2019-04-06T04:03:33.049Z,74.43
2019-04-06T04:06:03.663Z,76.37
2019-04-06T04:08:39.841Z,77.73
2019-04-06T04:11:10.889Z,74.40
2019-04-06T04:13:41.835Z,74.80
2019-04-06T04:16:12.520Z,75.00
2019-04-06T04:18:43.029Z,75.93
2019-04-06T04:21:13.929Z,75.57
2019-04-06T04:23:45.120Z,76.53
2019-04-06T04:26:15.844Z,74.23
2019-04-06T04:28:46.831Z,77.90
2019-04-06T04:31:17.615Z,76.47
2019-04-06T04:33:48.424Z,73.23
2019-04-06T04:36:19.455Z,75.23
2019-04-06T04:38:50.384Z,74.93
2019-04-06T04:41:20.927Z,74.20
2019-04-06T04:43:57.597Z,75.07
2019-04-06T04:46:28.446Z,73.00
2019-04-06T04:48:59.571Z,75.70
2019-04-06T04:51:30.297Z,72.53
2019-04-06T04:54:01.325Z,77.57
2019-04-06T04:56:32.416Z,73.77
2019-04-06T04:59:03.666Z,73.43
2019-04-06T05:01:37.396Z,73.60
2019-04-06T05:04:08.116Z,73.77
2019-04-06T05:06:39.059Z,76.33
2019-04-06T05:09:10.024Z,73.17
2019-04-06T05:11:40.914Z,72.63
2019-04-06T05:14:47.537Z,73.80
2019-04-06T05:17:18.956Z,71.30
2019-04-06T05:19:49.637Z,70.90
2019-04-06T05:22:20.364Z,69.83
2019-04-06T05:24:51.477Z,68.67
2019-04-06T05:27:22.756Z,72.50
2019-04-06T05:29:53.999Z,70.87
2019-04-06T05:32:25.210Z,70.37
2019-04-06T05:34:58.038Z,70.87
2019-04-06T05:37:28.441Z,66.43
2019-04-06T05:39:59.290Z,73.47
2019-04-06T05:42:30.451Z,71.20
2019-04-06T05:45:02.135Z,72.83
2019-04-06T05:47:33.321Z,65.63
2019-04-06T05:50:04.785Z,68.77
2019-04-06T05:52:36.350Z,68.73
2019-04-06T05:55:07.920Z,74.23
2019-04-06T05:57:38.958Z,69.07
2019-04-06T06:00:11.131Z,67.23
2019-04-06T06:02:42.664Z,68.33
2019-04-06T06:05:13.944Z,71.47
2019-04-06T06:07:44.704Z,66.27
2019-04-06T06:10:15.598Z,68.77
2019-04-06T06:12:46.625Z,71.23
2019-04-06T06:15:20.671Z,67.00
2019-04-06T06:17:52.068Z,65.20
2019-04-06T06:20:23.124Z,64.17
2019-04-06T06:22:54.299Z,64.27
2019-04-06T06:25:25.389Z,65.07
2019-04-06T06:27:56.429Z,61.93
2019-04-06T06:30:28.341Z,59.73
2019-04-06T06:32:59.239Z,61.87
2019-04-06T06:35:29.879Z,59.57
2019-04-06T06:38:00.524Z,61.40
2019-04-06T06:40:31.285Z,57.90
2019-04-06T06:43:03.349Z,60.07
2019-04-06T06:45:34.509Z,59.53
2019-04-06T06:48:06.230Z,59.03
2019-04-06T06:50:36.881Z,56.80
2019-04-06T06:53:07.479Z,60.90
2019-04-06T06:55:38.089Z,59.17
2019-04-06T06:58:09.285Z,58.33
2019-04-06T07:00:41.820Z,59.13
2019-04-06T07:03:19.489Z,57.90
2019-04-06T07:05:50.138Z,59.77
2019-04-06T07:08:28.937Z,56.80
2019-04-06T07:11:00.341Z,54.80
2019-04-06T07:13:31.330Z,58.67
2019-04-06T07:16:02.149Z,58.80
2019-04-06T07:18:34.059Z,60.17
2019-04-06T07:21:06.920Z,60.43
2019-04-06T07:23:37.928Z,60.30
2019-04-06T07:26:10.674Z,60.30
2019-04-06T07:28:42.521Z,58.97
2019-04-06T07:31:13.729Z,60.87
2019-04-06T07:33:46.272Z,61.57
2019-04-06T07:36:17.981Z,61.43
2019-04-06T07:38:51.127Z,62.37
2019-04-06T07:41:21.926Z,61.20
2019-04-06T07:43:52.690Z,61.23
2019-04-06T07:46:26.489Z,59.60
2019-04-06T07:49:07.837Z,60.57
2019-04-06T07:51:30.521Z,62.07
2019-04-06T07:54:03.623Z,59.03
2019-04-06T07:56:35.170Z,61.57
2019-04-06T07:59:06.943Z,62.67
2019-04-06T08:01:39.298Z,62.60
2019-04-06T08:04:10.870Z,62.93
2019-04-06T08:06:44.997Z,59.87
2019-04-06T08:09:16.035Z,58.87
2019-04-06T08:11:49.484Z,61.90
2019-04-06T08:14:20.321Z,63.70
2019-04-06T08:16:51.473Z,61.33
2019-04-06T08:19:23.235Z,60.47
2019-04-06T08:21:54.771Z,60.53
2019-04-06T08:24:26.626Z,61.00
2019-04-06T08:26:59.690Z,61.27
2019-04-06T08:29:31.159Z,61.87
2019-04-06T08:32:03.731Z,61.17
2019-04-06T08:34:35.546Z,57.97
2019-04-06T08:37:06.711Z,60.53
2019-04-06T08:40:00.941Z,61.80
2019-04-06T08:42:32.625Z,57.80
2019-04-06T08:45:04.163Z,56.27
2019-04-06T08:47:35.961Z,59.33
2019-04-06T08:50:07.857Z,58.57
2019-04-06T08:52:40.347Z,59.67
2019-04-06T08:55:14.325Z,57.33
2019-04-06T08:57:45.310Z,58.13
2019-04-06T09:00:26.271Z,56.67
2019-04-06T09:02:57.839Z,54.70
2019-04-06T09:05:31.158Z,53.30
2019-04-06T09:08:02.260Z,54.80
2019-04-06T09:10:33.697Z,54.97
2019-04-06T09:13:04.892Z,58.30
2019-04-06T09:15:40.886Z,55.97
2019-04-06T09:18:13.017Z,52.10
2019-04-06T09:20:46.645Z,51.43
2019-04-06T09:23:19.137Z,55.50
2019-04-06T09:25:50.335Z,55.40
2019-04-06T09:28:32.478Z,51.67
2019-04-06T09:31:03.003Z,55.67
2019-04-06T09:36:51.661Z,51.37
2019-04-06T09:43:10.941Z,50.77
2019-04-06T09:45:57.384Z,54.33
2019-04-06T09:49:01.030Z,51.63
2019-04-06T09:51:47.294Z,52.27
2019-04-06T09:54:39.936Z,53.97
2019-04-06T09:57:45.286Z,54.20
2019-04-06T10:00:42.418Z,56.83
2019-04-06T10:03:46.951Z,52.37
2019-04-06T10:06:45.231Z,50.13
2019-04-06T10:09:52.868Z,48.93
2019-04-06T10:12:53.880Z,50.17
2019-04-06T10:15:33.875Z,47.43
2019-04-06T10:18:30.423Z,52.37
2019-04-06T10:21:21.001Z,52.27
2019-04-06T10:24:21.442Z,53.70
2019-04-06T10:27:10.205Z,53.03
2019-04-06T10:30:03.556Z,55.33
2019-04-06T10:33:03.175Z,51.80
2019-04-06T10:35:51.792Z,49.53
2019-04-06T10:38:49.697Z,52.57
2019-04-06T10:41:49.755Z,53.07
2019-04-06T10:47:00.016Z,60.92
2019-04-06T10:49:40.583Z,53.17
2019-04-06T10:52:30.046Z,50.43
2019-04-06T10:55:30.921Z,50.90
2019-04-06T10:58:15.572Z,54.50
2019-04-06T11:01:07.892Z,49.63
2019-04-06T11:04:16.292Z,51.23
2019-04-06T11:07:00.151Z,49.73
2019-04-06T11:09:57.717Z,51.40
2019-04-06T11:13:02.936Z,47.27
2019-04-06T11:15:44.262Z,50.83
2019-04-06T11:18:32.948Z,49.70
2019-04-06T11:21:46.570Z,46.90
2019-04-06T11:24:35.371Z,49.57
2019-04-06T11:27:24.747Z,49.80
2019-04-06T11:30:28.004Z,48.37
2019-04-06T11:33:17.946Z,47.40
2019-04-06T11:36:17.505Z,47.43
2019-04-06T11:39:20.061Z,46.10
2019-04-06T11:42:11.136Z,43.47
2019-04-06T11:45:21.981Z,43.60
2019-04-06T11:48:18.865Z,43.20
2019-04-06T11:51:14.855Z,40.40
2019-04-06T11:54:13.687Z,43.80
2019-04-06T11:57:05.993Z,43.33
2019-04-06T11:59:50.823Z,43.33
2019-04-06T12:02:25.905Z,41.57
2019-04-06T12:05:23.213Z,40.37
2019-04-06T12:08:17.850Z,41.93
2019-04-06T12:11:19.782Z,42.70
2019-04-06T12:14:06.773Z,41.33
2019-04-06T12:17:00.252Z,39.07
2019-04-06T12:19:55.197Z,40.40
2019-04-06T12:22:51.063Z,37.50
2019-04-06T12:25:39.221Z,39.17
2019-04-06T12:28:36.390Z,39.40
2019-04-06T12:31:47.644Z,39.20
2019-04-06T12:34:41.896Z,34.90
2019-04-06T12:37:47.816Z,34.17
2019-04-06T12:40:34.142Z,35.87
2019-04-06T12:43:22.136Z,34.73
2019-04-06T12:46:15.741Z,35.50
2019-04-06T12:52:28.463Z,34.30
2019-04-06T12:55:08.909Z,34.07
2019-04-06T12:57:57.366Z,33.67
2019-04-06T13:00:52.144Z,31.73
2019-04-06T13:03:36.765Z,31.13
2019-04-06T13:06:30.025Z,29.60
2019-04-06T13:09:38.876Z,26.63
2019-04-06T13:12:29.523Z,30.13
2019-04-06T13:15:29.551Z,28.67
2019-04-06T13:18:19.451Z,25.80
2019-04-06T13:21:12.022Z,25.00
2019-04-06T13:24:15.859Z,24.67
2019-04-06T13:27:17.960Z,25.10
2019-04-06T13:30:08.313Z,23.03
2019-04-06T13:33:01.987Z,23.83
2019-04-06T13:35:58.883Z,21.43
2019-04-06T13:38:52.465Z,21.13
2019-04-06T13:41:48.686Z,23.13
2019-04-06T13:44:42.691Z,22.80
2019-04-06T13:47:47.945Z,21.00
2019-04-06T13:50:25.199Z,19.20
2019-04-06T13:53:11.185Z,18.87
2019-04-06T13:55:59.733Z,18.20
2019-04-06T13:58:36.796Z,18.87
2019-04-06T14:01:55.970Z,17.33
2019-04-06T14:04:45.317Z,16.87
2019-04-06T14:07:39.613Z,16.17
2019-04-06T14:10:40.506Z,17.53
2019-04-06T14:13:28.793Z,17.07
2019-04-06T14:16:26.621Z,15.50
2019-04-06T14:19:22.777Z,17.23
2019-04-06T14:22:18.517Z,17.70
2019-04-06T14:25:17.263Z,18.07
2019-04-06T14:28:09.385Z,16.80
2019-04-06T14:31:00.229Z,23.73
2019-04-06T14:33:53.589Z,23.20
2019-04-06T14:36:49.086Z,26.30
2019-04-06T14:40:10.507Z,26.90
2019-04-06T14:43:10.297Z,24.70
2019-04-06T14:46:05.852Z,21.50
2019-04-06T14:48:55.538Z,21.73
2019-04-06T14:51:39.177Z,22.77
2019-04-06T14:54:16.987Z,25.43
2019-04-06T14:57:38.556Z,25.80
2019-04-06T15:00:19.377Z,23.43
2019-04-06T15:03:00.492Z,19.40
2019-04-06T15:05:42.950Z,15.00
2019-04-06T15:08:34.437Z,13.93
2019-04-06T15:11:17.164Z,14.93
2019-04-06T15:14:09.666Z,15.77
2019-04-06T15:16:59.722Z,14.57
2019-04-06T15:19:58.436Z,22.30
2019-04-06T15:22:53.348Z,26.67
2019-04-06T15:25:38.433Z,27.13
2019-04-06T15:28:31.396Z,26.00
2019-04-06T15:31:10.062Z,28.33
2019-04-06T15:34:01.111Z,27.73
2019-04-06T15:36:45.332Z,27.10
2019-04-06T15:39:47.837Z,22.83
2019-04-06T15:42:36.381Z,25.57
2019-04-06T15:45:25.555Z,27.70
2019-04-06T15:48:15.031Z,26.03
2019-04-06T15:51:06.262Z,26.80
2019-04-06T15:53:56.098Z,25.47
2019-04-06T15:56:52.194Z,25.70
2019-04-06T15:59:49.342Z,25.13
2019-04-06T16:02:40.217Z,24.20
2019-04-06T16:05:29.119Z,25.17
2019-04-06T16:08:23.289Z,23.20
2019-04-06T16:11:28.772Z,22.67
2019-04-06T16:14:24.846Z,20.73
2019-04-06T16:17:09.483Z,21.97
2019-04-06T16:20:06.593Z,22.83
2019-04-06T16:22:57.827Z,22.27
2019-04-06T16:25:48.343Z,26.37
2019-04-06T16:28:43.273Z,25.30
2019-04-06T16:31:50.527Z,25.10
2019-04-06T16:34:56.472Z,25.33
2019-04-06T16:37:46.955Z,26.63
2019-04-06T16:40:56.272Z,27.27
2019-04-06T16:44:03.906Z,25.90
2019-04-06T16:46:50.567Z,27.47
2019-04-06T16:49:32.757Z,27.27
2019-04-06T16:52:34.115Z,28.90
2019-04-06T16:55:20.489Z,28.83
2019-04-06T16:58:26.424Z,29.13
2019-04-06T17:01:20.971Z,28.67
2019-04-06T17:04:22.229Z,30.37
2019-04-06T17:07:09.192Z,29.77
2019-04-06T17:10:06.502Z,28.43
2019-04-06T17:12:58.963Z,29.53
2019-04-06T17:15:48.114Z,28.73
2019-04-06T17:18:30.657Z,28.93
2019-04-06T17:21:32.218Z,28.90
2019-04-06T17:24:16.158Z,29.63
2019-04-06T17:27:07.256Z,27.43
2019-04-06T17:29:56.875Z,27.30
2019-04-06T17:32:38.311Z,26.83
2019-04-06T17:35:20.061Z,27.17
2019-04-06T17:38:02.576Z,26.47
2019-04-06T17:40:48.580Z,27.13
2019-04-06T17:43:41.703Z,27.63
2019-04-06T17:46:32.581Z,26.90
2019-04-06T17:49:26.328Z,27.70
2019-04-06T17:52:38.464Z,27.50
2019-04-06T17:55:39.163Z,27.40
2019-04-06T17:58:42.214Z,29.63
2019-04-06T18:01:51.064Z,28.10
2019-04-06T18:04:42.469Z,29.93
2019-04-06T18:07:34.898Z,29.63
2019-04-06T18:10:41.801Z,30.13
2019-04-06T18:13:42.422Z,29.83
2019-04-06T18:16:18.575Z,30.77
2019-04-06T18:18:52.133Z,30.87
2019-04-06T18:21:26.319Z,30.50
2019-04-06T18:24:00.972Z,32.43
2019-04-06T18:26:33.143Z,31.30
2019-04-06T18:29:05.001Z,32.53
2019-04-06T18:32:05.480Z,33.23
2019-04-06T18:34:46.935Z,32.47
2019-04-06T18:37:37.105Z,29.17
2019-04-06T18:40:30.552Z,32.60
2019-04-06T18:43:04.147Z,32.43
2019-04-06T18:45:41.492Z,33.50
2019-04-06T18:48:16.204Z,33.47
2019-04-06T18:50:47.753Z,33.40
2019-04-06T18:53:19.473Z,35.87
2019-04-06T18:55:51.115Z,33.20
2019-04-06T18:58:22.997Z,32.37
2019-04-06T19:00:55.143Z,34.20
2019-04-06T19:03:26.823Z,34.63
2019-04-06T19:05:58.263Z,38.10
2019-04-06T19:08:31.539Z,38.33
2019-04-06T19:11:07.333Z,40.87
2019-04-06T19:13:40.777Z,38.67
2019-04-06T19:16:13.239Z,39.60
2019-04-06T19:18:44.903Z,37.87
2019-04-06T19:21:18.608Z,42.78
2019-04-06T19:23:50.717Z,39.30
2019-04-06T19:26:28.784Z,41.60
2019-04-06T19:29:02.015Z,40.97
2019-04-06T19:31:44.356Z,42.53
2019-04-06T19:34:30.405Z,40.77
2019-04-06T19:37:03.005Z,38.63
2019-04-06T19:39:34.538Z,39.37
2019-04-06T19:42:14.554Z,44.00
2019-04-06T19:44:46.321Z,47.37
2019-04-06T19:47:18.895Z,48.70
2019-04-06T19:49:50.388Z,50.20
2019-04-06T19:52:23.244Z,43.30
2019-04-06T19:54:55.010Z,45.27
2019-04-06T19:57:26.057Z,43.73
2019-04-06T19:59:57.865Z,43.70
2019-04-06T20:02:38.492Z,41.60
2019-04-06T20:05:10.910Z,43.27
2019-04-06T20:07:42.398Z,43.63
2019-04-06T20:10:14.014Z,40.73
2019-04-06T20:12:52.323Z,38.50
2019-04-06T20:15:24.468Z,39.37
2019-04-06T20:17:59.110Z,39.00
2019-04-06T20:20:30.284Z,39.03
2019-04-06T20:23:06.263Z,41.93
2019-04-06T20:25:38.739Z,43.27
2019-04-06T20:28:14.309Z,48.53
2019-04-06T20:30:45.850Z,45.80
2019-04-06T20:33:19.613Z,44.57
2019-04-06T20:35:50.818Z,42.03
2019-04-06T20:38:22.120Z,43.43
2019-04-06T20:40:53.992Z,44.37
2019-04-06T20:43:25.349Z,43.80
2019-04-06T20:46:00.913Z,43.57
2019-04-06T20:48:33.884Z,41.40
2019-04-06T20:51:05.346Z,41.87
2019-04-06T20:53:37.612Z,41.67
2019-04-06T20:56:21.154Z,44.73
2019-04-06T20:58:57.488Z,44.53
2019-04-06T21:01:28.870Z,44.87
2019-04-06T21:04:02.798Z,44.27
2019-04-06T21:06:36.208Z,44.17
2019-04-06T21:09:16.633Z,46.20
2019-04-06T21:11:48.013Z,42.17
2019-04-06T21:14:21.572Z,47.83
2019-04-06T21:16:53.411Z,43.43
2019-04-06T21:19:24.832Z,43.07
2019-04-06T21:21:59.730Z,47.27
2019-04-06T21:24:37.730Z,46.40
2019-04-06T21:27:15.092Z,47.97
2019-04-06T21:30:08.314Z,47.53
2019-04-06T21:32:47.848Z,51.53
2019-04-06T21:35:26.943Z,47.80
2019-04-06T21:38:04.591Z,43.77
2019-04-06T21:40:42.509Z,46.73
2019-04-06T21:43:27.782Z,44.27
2019-04-06T21:46:13.410Z,44.73
2019-04-06T21:48:47.230Z,44.93
2019-04-06T21:51:23.328Z,43.20
2019-04-06T21:53:56.310Z,42.23
2019-04-06T21:56:29.285Z,42.47
2019-04-06T21:59:02.735Z,41.33
2019-04-06T22:01:38.734Z,43.87
2019-04-06T22:04:22.626Z,43.27
2019-04-06T22:06:46.057Z,43.47
2019-04-06T22:09:28.938Z,43.20
2019-04-06T22:12:03.315Z,43.17
2019-04-06T22:14:47.351Z,47.47
2019-04-06T22:17:42.144Z,44.67
2019-04-06T22:20:19.736Z,43.73
2019-04-06T22:22:51.696Z,46.13
2019-04-06T22:25:30.600Z,42.93
2019-04-06T22:28:11.635Z,45.30
2019-04-06T22:30:43.942Z,46.23
2019-04-06T22:33:22.420Z,46.17
2019-04-06T22:35:57.276Z,45.03
2019-04-06T22:38:34.167Z,43.00
2019-04-06T22:41:07.889Z,45.80
2019-04-06T22:43:52.380Z,43.90
2019-04-06T22:46:33.917Z,44.37
2019-04-06T22:49:08.064Z,44.17
2019-04-06T22:51:40.591Z,46.57
2019-04-06T22:54:14.964Z,45.90
2019-04-06T22:56:46.159Z,44.33
2019-04-06T22:59:21.186Z,45.07
2019-04-06T23:01:59.757Z,44.90
2019-04-06T23:04:50.967Z,44.90
2019-04-06T23:07:24.559Z,46.40
2019-04-06T23:09:58.707Z,46.20
2019-04-06T23:12:38.310Z,47.77
2019-04-06T23:15:23.268Z,45.20
2019-04-06T23:18:03.790Z,48.57
2019-04-06T23:20:44.779Z,48.83
2019-04-06T23:23:27.855Z,49.70
2019-04-06T23:26:08.197Z,47.17
2019-04-06T23:28:59.610Z,48.30
2019-04-06T23:31:37.296Z,49.33
2019-04-06T23:34:10.156Z,46.97
2019-04-06T23:36:42.037Z,45.33
2019-04-06T23:39:13.584Z,44.00
2019-04-06T23:41:50.674Z,44.73
2019-04-06T23:44:25.121Z,41.43
2019-04-06T23:46:56.496Z,43.53
2019-04-06T23:49:32.754Z,42.63
2019-04-06T23:52:03.906Z,42.50
2019-04-06T23:54:35.150Z,42.60
2019-04-06T23:57:07.603Z,42.30
2019-04-06T23:59:38.599Z,42.20
